sensor_id;sensor_type;location;lat;lon;timestamp;pressure;altitude;pressure_sealevel;temperature;humidity
75699;BME280;64313;51.018;13.742;2023-04-15T00:00:10;98575.84;;;7.16;86.16
75699;BME280;64313;51.018;13.742;2023-04-15T00:02:38;98572.97;;;7.11;87.24
75699;BME280;64313;51.018;13.742;2023-04-15T00:05:04;98571.31;;;7.10;86.86
75699;BME280;64313;51.018;13.742;2023-04-15T00:07:30;98568.47;;;7.11;87.04
75699;BME280;64313;51.018;13.742;2023-04-15T00:09:55;98574.78;;;7.10;87.02
75699;BME280;64313;51.018;13.742;2023-04-15T00:12:22;98569.47;;;7.10;87.17
75699;BME280;64313;51.018;13.742;2023-04-15T00:14:48;98568.47;;;7.11;86.94
75699;BME280;64313;51.018;13.742;2023-04-15T00:17:14;98561.72;;;7.15;86.48
75699;BME280;64313;51.018;13.742;2023-04-15T00:19:39;98556.63;;;7.14;86.30
75699;BME280;64313;51.018;13.742;2023-04-15T00:22:05;98555.81;;;7.13;86.38
75699;BME280;64313;51.018;13.742;2023-04-15T00:24:30;98553.16;;;7.13;87.02
75699;BME280;64313;51.018;13.742;2023-04-15T00:26:55;98553.16;;;7.13;86.53
75699;BME280;64313;51.018;13.742;2023-04-15T00:29:23;98554.56;;;7.16;86.38
75699;BME280;64313;51.018;13.742;2023-04-15T00:31:48;98556.19;;;7.10;86.86
75699;BME280;64313;51.018;13.742;2023-04-15T00:34:13;98554.16;;;7.12;86.35
75699;BME280;64313;51.018;13.742;2023-04-15T00:36:41;98548.84;;;7.12;86.46
75699;BME280;64313;51.018;13.742;2023-04-15T00:39:07;98543.09;;;7.15;86.38
75699;BME280;64313;51.018;13.742;2023-04-15T00:41:32;98542.28;;;7.15;86.51
75699;BME280;64313;51.018;13.742;2023-04-15T00:43:58;98542.91;;;7.17;86.22
75699;BME280;64313;51.018;13.742;2023-04-15T00:46:26;98540.25;;;7.17;85.99
75699;BME280;64313;51.018;13.742;2023-04-15T00:48:53;98539.44;;;7.17;86.00
75699;BME280;64313;51.018;13.742;2023-04-15T00:51:19;98544.56;;;7.11;87.16
75699;BME280;64313;51.018;13.742;2023-04-15T00:53:44;98550.28;;;7.08;86.81
75699;BME280;64313;51.018;13.742;2023-04-15T00:56:11;98547.81;;;7.07;87.08
75699;BME280;64313;51.018;13.742;2023-04-15T00:58:36;98540.66;;;7.07;86.88
75699;BME280;64313;51.018;13.742;2023-04-15T01:01:02;98541.47;;;7.08;86.89
75699;BME280;64313;51.018;13.742;2023-04-15T01:03:28;98540.66;;;7.07;87.17
75699;BME280;64313;51.018;13.742;2023-04-15T01:05:54;98537.81;;;7.09;86.70
75699;BME280;64313;51.018;13.742;2023-04-15T01:08:26;98534.13;;;7.10;86.80
75699;BME280;64313;51.018;13.742;2023-04-15T01:10:54;98521.47;;;7.12;86.31
75699;BME280;64313;51.018;13.742;2023-04-15T01:13:22;98538.44;;;7.11;86.92
75699;BME280;64313;51.018;13.742;2023-04-15T01:15:48;98528.81;;;7.10;86.34
75699;BME280;64313;51.018;13.742;2023-04-15T01:18:14;98526.97;;;7.10;86.64
75699;BME280;64313;51.018;13.742;2023-04-15T01:20:39;98531.28;;;7.11;86.49
75699;BME280;64313;51.018;13.742;2023-04-15T01:23:05;98518.00;;;7.11;86.50
75699;BME280;64313;51.018;13.742;2023-04-15T01:25:34;98528.00;;;7.09;86.58
75699;BME280;64313;51.018;13.742;2023-04-15T01:28:00;98526.97;;;7.10;86.32
75699;BME280;64313;51.018;13.742;2023-04-15T01:30:26;98525.97;;;7.11;86.40
75699;BME280;64313;51.018;13.742;2023-04-15T01:32:52;98523.31;;;7.11;86.54
75699;BME280;64313;51.018;13.742;2023-04-15T01:35:18;98516.94;;;7.12;86.75
75699;BME280;64313;51.018;13.742;2023-04-15T01:37:44;98521.06;;;7.08;86.45
75699;BME280;64313;51.018;13.742;2023-04-15T01:40:10;98511.25;;;7.09;87.17
75699;BME280;64313;51.018;13.742;2023-04-15T01:42:36;98508.59;;;7.09;86.97
75699;BME280;64313;51.018;13.742;2023-04-15T01:45:02;98515.53;;;7.10;87.25
75699;BME280;64313;51.018;13.742;2023-04-15T01:47:28;98513.69;;;7.10;86.81
75699;BME280;64313;51.018;13.742;2023-04-15T01:49:53;98510.81;;;7.12;86.94
75699;BME280;64313;51.018;13.742;2023-04-15T01:52:18;98513.69;;;7.10;86.95
75699;BME280;64313;51.018;13.742;2023-04-15T01:54:44;98515.34;;;7.11;86.70
75699;BME280;64313;51.018;13.742;2023-04-15T01:57:10;98513.28;;;7.13;86.05
75699;BME280;64313;51.018;13.742;2023-04-15T01:59:36;98513.28;;;7.13;86.49
75699;BME280;64313;51.018;13.742;2023-04-15T02:02:01;98502.66;;;7.13;86.59
75699;BME280;64313;51.018;13.742;2023-04-15T02:04:26;98506.31;;;7.12;86.27
75699;BME280;64313;51.018;13.742;2023-04-15T02:06:52;98501.00;;;7.12;87.26
75699;BME280;64313;51.018;13.742;2023-04-15T02:09:20;98501.00;;;7.12;86.95
75699;BME280;64313;51.018;13.742;2023-04-15T02:11:45;98501.44;;;7.09;87.02
75699;BME280;64313;51.018;13.742;2023-04-15T02:14:10;98497.34;;;7.07;87.09
75699;BME280;64313;51.018;13.742;2023-04-15T02:16:36;98494.88;;;7.05;87.59
75699;BME280;64313;51.018;13.742;2023-04-15T02:19:01;98495.09;;;7.04;87.14
75699;BME280;64313;51.018;13.742;2023-04-15T02:21:29;98495.50;;;7.07;86.94
75699;BME280;64313;51.018;13.742;2023-04-15T02:23:54;98498.16;;;7.07;87.66
75699;BME280;64313;51.018;13.742;2023-04-15T02:26:20;98487.53;;;7.07;87.30
75699;BME280;64313;51.018;13.742;2023-04-15T02:28:47;98490.81;;;7.09;86.68
75699;BME280;64313;51.018;13.742;2023-04-15T02:31:13;98490.19;;;7.07;87.68
75699;BME280;64313;51.018;13.742;2023-04-15T02:33:38;98486.53;;;7.08;86.78
75699;BME280;64313;51.018;13.742;2023-04-15T02:36:04;98482.03;;;7.09;86.51
75699;BME280;64313;51.018;13.742;2023-04-15T02:38:30;98473.44;;;7.07;87.94
75699;BME280;64313;51.018;13.742;2023-04-15T02:40:56;98482.03;;;7.09;87.35
75699;BME280;64313;51.018;13.742;2023-04-15T02:43:22;98479.38;;;7.09;86.96
75699;BME280;64313;51.018;13.742;2023-04-15T02:45:49;98487.94;;;7.11;87.24
75699;BME280;64313;51.018;13.742;2023-04-15T02:48:15;98490.81;;;7.09;87.73
75699;BME280;64313;51.018;13.742;2023-04-15T02:50:43;98486.53;;;7.08;87.88
75699;BME280;64313;51.018;13.742;2023-04-15T02:53:12;98489.75;;;7.10;87.11
75699;BME280;64313;51.018;13.742;2023-04-15T02:55:38;98498.56;;;7.11;87.06
75699;BME280;64313;51.018;13.742;2023-04-15T02:58:04;98496.94;;;7.17;86.79
75699;BME280;64313;51.018;13.742;2023-04-15T03:00:29;98490.81;;;7.16;86.63
75699;BME280;64313;51.018;13.742;2023-04-15T03:03:03;98489.38;;;7.13;87.24
75699;BME280;64313;51.018;13.742;2023-04-15T03:05:29;98483.84;;;7.15;87.22
75699;BME280;64313;51.018;13.742;2023-04-15T03:07:55;98480.16;;;7.16;86.84
75699;BME280;64313;51.018;13.742;2023-04-15T03:10:20;98473.22;;;7.15;87.00
75699;BME280;64313;51.018;13.742;2023-04-15T03:12:46;98480.16;;;7.16;86.54
75699;BME280;64313;51.018;13.742;2023-04-15T03:15:16;98468.69;;;7.15;86.73
75699;BME280;64313;51.018;13.742;2023-04-15T03:17:45;98469.94;;;7.13;87.99
75699;BME280;64313;51.018;13.742;2023-04-15T03:20:12;98477.31;;;7.11;87.15
75699;BME280;64313;51.018;13.742;2023-04-15T03:22:37;98469.13;;;7.12;86.99
75699;BME280;64313;51.018;13.742;2023-04-15T03:25:03;98471.16;;;7.10;87.68
75699;BME280;64313;51.018;13.742;2023-04-15T03:27:28;98486.53;;;7.08;87.75
75699;BME280;64313;51.018;13.742;2023-04-15T03:29:57;98475.91;;;7.08;87.69
75699;BME280;64313;51.018;13.742;2023-04-15T03:32:25;98470.97;;;7.12;86.95
75699;BME280;64313;51.018;13.742;2023-04-15T03:34:51;98470.97;;;7.12;87.70
75699;BME280;64313;51.018;13.742;2023-04-15T03:37:16;98466.69;;;7.11;87.38
75699;BME280;64313;51.018;13.742;2023-04-15T03:39:43;98458.72;;;7.11;87.32
75699;BME280;64313;51.018;13.742;2023-04-15T03:42:08;98457.69;;;7.12;86.86
75699;BME280;64313;51.018;13.742;2023-04-15T03:44:33;98460.53;;;7.10;87.68
75699;BME280;64313;51.018;13.742;2023-04-15T03:46:59;98452.56;;;7.10;87.54
75699;BME280;64313;51.018;13.742;2023-04-15T03:49:24;98455.22;;;7.10;87.19
75699;BME280;64313;51.018;13.742;2023-04-15T03:51:49;98447.25;;;7.10;86.90
75699;BME280;64313;51.018;13.742;2023-04-15T03:54:15;98457.06;;;7.10;87.50
75699;BME280;64313;51.018;13.742;2023-04-15T03:56:40;98447.47;;;7.09;87.43
75699;BME280;64313;51.018;13.742;2023-04-15T03:59:05;98446.25;;;7.11;87.18
75699;BME280;64313;51.018;13.742;2023-04-15T04:01:31;98439.72;;;7.07;87.87
75699;BME280;64313;51.018;13.742;2023-04-15T04:03:56;98442.16;;;7.09;87.70
75699;BME280;64313;51.018;13.742;2023-04-15T04:06:21;98447.47;;;7.09;87.70
75699;BME280;64313;51.018;13.742;2023-04-15T04:08:47;98447.47;;;7.09;87.50
75699;BME280;64313;51.018;13.742;2023-04-15T04:11:12;98449.53;;;7.07;88.22
75699;BME280;64313;51.018;13.742;2023-04-15T04:13:37;98455.88;;;7.06;88.24
75699;BME280;64313;51.018;13.742;2023-04-15T04:16:03;98455.66;;;7.07;88.02
75699;BME280;64313;51.018;13.742;2023-04-15T04:18:29;98455.44;;;7.09;88.24
75699;BME280;64313;51.018;13.742;2023-04-15T04:20:55;98451.75;;;7.10;87.41
75699;BME280;64313;51.018;13.742;2023-04-15T04:23:20;98455.44;;;7.09;87.89
75699;BME280;64313;51.018;13.742;2023-04-15T04:25:47;98447.88;;;7.12;87.23
75699;BME280;64313;51.018;13.742;2023-04-15T04:28:12;98455.22;;;7.10;88.64
75699;BME280;64313;51.018;13.742;2023-04-15T04:30:38;98453.41;;;7.11;87.89
75699;BME280;64313;51.018;13.742;2023-04-15T04:33:03;98456.06;;;7.11;88.17
75699;BME280;64313;51.018;13.742;2023-04-15T04:35:29;98465.03;;;7.10;88.48
75699;BME280;64313;51.018;13.742;2023-04-15T04:37:54;98465.03;;;7.10;88.15
75699;BME280;64313;51.018;13.742;2023-04-15T04:40:20;98465.03;;;7.10;88.13
75699;BME280;64313;51.018;13.742;2023-04-15T04:42:48;98470.16;;;7.11;87.75
75699;BME280;64313;51.018;13.742;2023-04-15T04:45:13;98467.09;;;7.08;88.50
75699;BME280;64313;51.018;13.742;2023-04-15T04:47:39;98470.59;;;7.08;87.55
75699;BME280;64313;51.018;13.742;2023-04-15T04:50:04;98485.50;;;7.09;88.21
75699;BME280;64313;51.018;13.742;2023-04-15T04:52:30;98486.72;;;7.07;88.09
75699;BME280;64313;51.018;13.742;2023-04-15T04:54:56;98491.84;;;7.08;87.77
75699;BME280;64313;51.018;13.742;2023-04-15T04:57:21;98496.13;;;7.09;88.31
75699;BME280;64313;51.018;13.742;2023-04-15T04:59:46;98491.19;;;7.13;87.52
75699;BME280;64313;51.018;13.742;2023-04-15T05:02:12;98491.41;;;7.11;88.56
75699;BME280;64313;51.018;13.742;2023-04-15T05:04:37;98494.69;;;7.13;88.47
75699;BME280;64313;51.018;13.742;2023-04-15T05:07:02;98486.72;;;7.13;88.67
75699;BME280;64313;51.018;13.742;2023-04-15T05:09:27;98480.56;;;7.13;88.49
75699;BME280;64313;51.018;13.742;2023-04-15T05:11:56;98484.66;;;7.15;88.55
75699;BME280;64313;51.018;13.742;2023-04-15T05:14:21;98485.50;;;7.16;87.96
75699;BME280;64313;51.018;13.742;2023-04-15T05:16:46;98491.38;;;7.18;88.41
75699;BME280;64313;51.018;13.742;2023-04-15T05:19:12;98496.69;;;7.18;88.18
75699;BME280;64313;51.018;13.742;2023-04-15T05:21:37;98493.03;;;7.19;87.74
75699;BME280;64313;51.018;13.742;2023-04-15T05:24:03;98492.84;;;7.21;88.41
75699;BME280;64313;51.018;13.742;2023-04-15T05:26:28;98498.75;;;7.23;87.81
75699;BME280;64313;51.018;13.742;2023-04-15T05:28:55;98491.59;;;7.23;88.40
75699;BME280;64313;51.018;13.742;2023-04-15T05:31:20;98494.84;;;7.25;87.72
75699;BME280;64313;51.018;13.742;2023-04-15T05:33:46;98494.84;;;7.25;88.04
75699;BME280;64313;51.018;13.742;2023-04-15T05:36:11;98495.69;;;7.26;87.45
75699;BME280;64313;51.018;13.742;2023-04-15T05:38:36;98493.63;;;7.28;88.11
75699;BME280;64313;51.018;13.742;2023-04-15T05:41:02;98489.75;;;7.24;88.00
75699;BME280;64313;51.018;13.742;2023-04-15T05:43:27;98499.59;;;7.23;87.56
75699;BME280;64313;51.018;13.742;2023-04-15T05:45:53;98503.06;;;7.24;87.57
75699;BME280;64313;51.018;13.742;2023-04-15T05:48:18;98502.25;;;7.23;87.82
75699;BME280;64313;51.018;13.742;2023-04-15T05:50:43;98517.16;;;7.24;87.55
75699;BME280;64313;51.018;13.742;2023-04-15T05:53:08;98515.53;;;7.23;87.50
75699;BME280;64313;51.018;13.742;2023-04-15T05:55:34;98522.28;;;7.26;87.55
75699;BME280;64313;51.018;13.742;2023-04-15T05:57:59;98527.78;;;7.24;87.96
75699;BME280;64313;51.018;13.742;2023-04-15T06:00:26;98526.75;;;7.25;87.26
75699;BME280;64313;51.018;13.742;2023-04-15T06:02:51;98524.94;;;7.26;87.43
75699;BME280;64313;51.018;13.742;2023-04-15T06:05:17;98524.94;;;7.26;87.17
75699;BME280;64313;51.018;13.742;2023-04-15T06:07:42;98531.66;;;7.28;87.29
75699;BME280;64313;51.018;13.742;2023-04-15T06:10:08;98532.69;;;7.27;87.53
75699;BME280;64313;51.018;13.742;2023-04-15T06:12:34;98536.16;;;7.28;86.95
75699;BME280;64313;51.018;13.742;2023-04-15T06:14:59;98520.81;;;7.30;86.81
75699;BME280;64313;51.018;13.742;2023-04-15T06:17:24;98527.97;;;7.29;87.39
75699;BME280;64313;51.018;13.742;2023-04-15T06:19:50;98531.44;;;7.30;87.13
75699;BME280;64313;51.018;13.742;2023-04-15T06:22:20;98531.88;;;7.27;87.72
75699;BME280;64313;51.018;13.742;2023-04-15T06:24:46;98541.25;;;7.29;87.59
75699;BME280;64313;51.018;13.742;2023-04-15T06:27:11;98537.78;;;7.29;87.35
75699;BME280;64313;51.018;13.742;2023-04-15T06:29:37;98535.75;;;7.31;87.78
75699;BME280;64313;51.018;13.742;2023-04-15T06:32:02;98548.00;;;7.32;87.32
75699;BME280;64313;51.018;13.742;2023-04-15T06:34:27;98554.13;;;7.32;87.48
75699;BME280;64313;51.018;13.742;2023-04-15T06:36:53;98543.50;;;7.32;87.39
75699;BME280;64313;51.018;13.742;2023-04-15T06:39:18;98543.91;;;7.36;87.53
75699;BME280;64313;51.018;13.742;2023-04-15T06:41:44;98547.16;;;7.38;86.64
75699;BME280;64313;51.018;13.742;2023-04-15T06:44:11;98548.00;;;7.39;87.00
75699;BME280;64313;51.018;13.742;2023-04-15T06:46:36;98555.16;;;7.38;87.08
75699;BME280;64313;51.018;13.742;2023-04-15T06:49:01;98550.44;;;7.40;86.53
75699;BME280;64313;51.018;13.742;2023-04-15T06:51:27;98553.91;;;7.41;87.28
75699;BME280;64313;51.018;13.742;2023-04-15T06:53:53;98553.72;;;7.42;86.44
75699;BME280;64313;51.018;13.742;2023-04-15T06:56:18;98559.84;;;7.43;86.88
75699;BME280;64313;51.018;13.742;2023-04-15T06:58:44;98553.72;;;7.42;86.72
75699;BME280;64313;51.018;13.742;2023-04-15T07:01:09;98549.00;;;7.44;86.19
75699;BME280;64313;51.018;13.742;2023-04-15T07:03:34;98560.66;;;7.43;86.96
75699;BME280;64313;51.018;13.742;2023-04-15T07:05:59;98560.47;;;7.45;86.84
75699;BME280;64313;51.018;13.742;2023-04-15T07:08:26;98565.78;;;7.45;86.87
75699;BME280;64313;51.018;13.742;2023-04-15T07:10:51;98571.09;;;7.45;86.76
75699;BME280;64313;51.018;13.742;2023-04-15T07:13:16;98575.19;;;7.47;87.11
75699;BME280;64313;51.018;13.742;2023-04-15T07:15:41;98573.94;;;7.50;86.67
75699;BME280;64313;51.018;13.742;2023-04-15T07:18:07;98580.31;;;7.49;86.92
75699;BME280;64313;51.018;13.742;2023-04-15T07:20:33;98585.63;;;7.49;86.81
75699;BME280;64313;51.018;13.742;2023-04-15T07:22:59;98586.19;;;7.51;86.75
75699;BME280;64313;51.018;13.742;2023-04-15T07:25:24;98582.53;;;7.52;86.51
75699;BME280;64313;51.018;13.742;2023-04-15T07:27:49;98593.78;;;7.54;86.72
75699;BME280;64313;51.018;13.742;2023-04-15T07:30:15;98593.56;;;7.55;86.46
75699;BME280;64313;51.018;13.742;2023-04-15T07:32:42;98594.41;;;7.56;86.62
75699;BME280;64313;51.018;13.742;2023-04-15T07:35:07;98586.44;;;7.56;86.42
75699;BME280;64313;51.018;13.742;2023-04-15T07:37:34;98591.75;;;7.56;86.47
75699;BME280;64313;51.018;13.742;2023-04-15T07:39:59;98584.56;;;7.56;86.59
75699;BME280;64313;51.018;13.742;2023-04-15T07:42:25;98592.13;;;7.59;86.37
75699;BME280;64313;51.018;13.742;2023-04-15T07:44:50;98592.75;;;7.62;86.81
75699;BME280;64313;51.018;13.742;2023-04-15T07:47:16;98600.31;;;7.65;86.05
75699;BME280;64313;51.018;13.742;2023-04-15T07:49:41;98598.47;;;7.65;86.45
75699;BME280;64313;51.018;13.742;2023-04-15T07:52:07;98604.41;;;7.67;86.25
75699;BME280;64313;51.018;13.742;2023-04-15T07:54:33;98598.66;;;7.70;86.36
75699;BME280;64313;51.018;13.742;2023-04-15T07:56:58;98602.72;;;7.73;86.43
75699;BME280;64313;51.018;13.742;2023-04-15T07:59:23;98610.91;;;7.78;86.84
75699;BME280;64313;51.018;13.742;2023-04-15T08:01:49;98606.59;;;7.84;86.38
75699;BME280;64313;51.018;13.742;2023-04-15T08:04:14;98617.44;;;7.89;85.73
75699;BME280;64313;51.018;13.742;2023-04-15T08:06:39;98619.69;;;7.92;85.68
75699;BME280;64313;51.018;13.742;2023-04-15T08:09:05;98609.00;;;7.98;85.75
75699;BME280;64313;51.018;13.742;2023-04-15T08:11:31;98627.22;;;8.01;85.31
75699;BME280;64313;51.018;13.742;2023-04-15T08:13:57;98622.50;;;8.03;85.22
75699;BME280;64313;51.018;13.742;2023-04-15T08:16:23;98628.44;;;8.06;84.54
75699;BME280;64313;51.018;13.742;2023-04-15T08:18:50;98631.91;;;8.06;85.25
75699;BME280;64313;51.018;13.742;2023-04-15T08:21:17;98628.22;;;8.07;85.52
75699;BME280;64313;51.018;13.742;2023-04-15T08:23:44;98634.75;;;8.11;85.23
75699;BME280;64313;51.018;13.742;2023-04-15T08:26:10;98625.34;;;8.15;85.46
75699;BME280;64313;51.018;13.742;2023-04-15T08:28:38;98636.41;;;8.19;84.44
75699;BME280;64313;51.018;13.742;2023-04-15T08:31:03;98629.59;;;8.23;84.61
75699;BME280;64313;51.018;13.742;2023-04-15T08:33:29;98638.00;;;8.27;84.82
75699;BME280;64313;51.018;13.742;2023-04-15T08:35:54;98634.31;;;8.28;84.31
75699;BME280;64313;51.018;13.742;2023-04-15T08:38:21;98636.34;;;8.32;84.54
75699;BME280;64313;51.018;13.742;2023-04-15T08:40:46;98638.56;;;8.35;84.24
75699;BME280;64313;51.018;13.742;2023-04-15T08:43:17;98637.31;;;8.38;84.52
75699;BME280;64313;51.018;13.742;2023-04-15T08:45:45;98647.56;;;8.41;83.70
75699;BME280;64313;51.018;13.742;2023-04-15T08:48:14;98645.53;;;8.43;83.62
75699;BME280;64313;51.018;13.742;2023-04-15T08:50:43;98646.13;;;8.45;83.70
75699;BME280;64313;51.018;13.742;2023-04-15T08:53:12;98648.38;;;8.48;83.53
75699;BME280;64313;51.018;13.742;2023-04-15T08:55:46;98659.84;;;8.49;83.26
75699;BME280;64313;51.018;13.742;2023-04-15T08:58:15;98656.16;;;8.50;83.10
75699;BME280;64313;51.018;13.742;2023-04-15T09:00:41;98647.13;;;8.51;83.41
75699;BME280;64313;51.018;13.742;2023-04-15T09:03:07;98660.25;;;8.52;83.47
75699;BME280;64313;51.018;13.742;2023-04-15T09:05:33;98650.41;;;8.53;83.03
75699;BME280;64313;51.018;13.742;2023-04-15T09:08:00;98658.19;;;8.54;83.16
75699;BME280;64313;51.018;13.742;2023-04-15T09:10:26;98667.81;;;8.55;82.34
75699;BME280;64313;51.018;13.742;2023-04-15T09:12:54;98664.53;;;8.53;82.03
75699;BME280;64313;51.018;13.742;2023-04-15T09:15:19;98667.19;;;8.53;82.32
75699;BME280;64313;51.018;13.742;2023-04-15T09:17:45;98668.44;;;8.51;82.70
75699;BME280;64313;51.018;13.742;2023-04-15T09:20:14;98672.75;;;8.52;82.87
75699;BME280;64313;51.018;13.742;2023-04-15T09:22:42;98673.97;;;8.49;82.60
75699;BME280;64313;51.018;13.742;2023-04-15T09:27:52;98677.47;;;8.50;82.01
75699;BME280;64313;51.018;13.742;2023-04-15T09:30:18;98682.56;;;8.51;81.76
75699;BME280;64313;51.018;13.742;2023-04-15T09:32:53;98680.94;;;8.50;82.02
75699;BME280;64313;51.018;13.742;2023-04-15T09:35:20;98687.88;;;8.51;82.00
75699;BME280;64313;51.018;13.742;2023-04-15T09:37:47;98684.41;;;8.51;81.97
75699;BME280;64313;51.018;13.742;2023-04-15T09:40:12;98691.59;;;8.50;81.40
75699;BME280;64313;51.018;13.742;2023-04-15T09:42:54;98695.88;;;8.51;81.49
75699;BME280;64313;51.018;13.742;2023-04-15T09:45:20;98695.88;;;8.51;81.03
75699;BME280;64313;51.018;13.742;2023-04-15T09:47:46;98702.84;;;8.52;81.09
75699;BME280;64313;51.018;13.742;2023-04-15T09:50:11;98708.19;;;8.52;80.84
75699;BME280;64313;51.018;13.742;2023-04-15T09:52:45;98703.06;;;8.51;80.91
75699;BME280;64313;51.018;13.742;2023-04-15T09:55:11;98715.38;;;8.52;80.59
75699;BME280;64313;51.018;13.742;2023-04-15T09:57:38;98719.66;;;8.53;80.43
75699;BME280;64313;51.018;13.742;2023-04-15T10:00:07;98718.03;;;8.52;80.29
75699;BME280;64313;51.018;13.742;2023-04-15T10:02:38;98719.66;;;8.53;80.58
75699;BME280;64313;51.018;13.742;2023-04-15T10:05:05;98724.16;;;8.52;80.68
75699;BME280;64313;51.018;13.742;2023-04-15T10:07:31;98727.66;;;8.53;80.11
75699;BME280;64313;51.018;13.742;2023-04-15T10:09:58;98721.28;;;8.54;80.15
75699;BME280;64313;51.018;13.742;2023-04-15T10:12:25;98738.28;;;8.53;80.54
75699;BME280;64313;51.018;13.742;2023-04-15T10:15:03;98734.81;;;8.52;80.61
75699;BME280;64313;51.018;13.742;2023-04-15T10:17:29;98735.63;;;8.53;80.31
75699;BME280;64313;51.018;13.742;2023-04-15T10:20:03;98746.09;;;8.54;80.11
75699;BME280;64313;51.018;13.742;2023-04-15T10:22:29;98734.59;;;8.54;80.34
75699;BME280;64313;51.018;13.742;2023-04-15T10:24:55;98748.75;;;8.54;80.48
75699;BME280;64313;51.018;13.742;2023-04-15T10:27:22;98744.25;;;8.55;79.97
75699;BME280;64313;51.018;13.742;2023-04-15T10:29:49;98739.72;;;8.55;80.07
75699;BME280;64313;51.018;13.742;2023-04-15T10:32:16;98740.53;;;8.56;79.96
75699;BME280;64313;51.018;13.742;2023-04-15T10:34:42;98752.00;;;8.56;79.96
75699;BME280;64313;51.018;13.742;2023-04-15T10:37:09;98751.00;;;8.57;80.19
75699;BME280;64313;51.018;13.742;2023-04-15T10:42:16;98752.41;;;8.60;79.43
75699;BME280;64313;51.018;13.742;2023-04-15T10:44:44;98759.78;;;8.58;78.94
75699;BME280;64313;51.018;13.742;2023-04-15T10:47:14;98748.94;;;8.59;79.40
75699;BME280;64313;51.018;13.742;2023-04-15T10:49:51;98746.03;;;8.61;79.47
75699;BME280;64313;51.018;13.742;2023-04-15T10:52:21;98750.13;;;8.63;79.22
75699;BME280;64313;51.018;13.742;2023-04-15T10:54:47;98753.59;;;8.64;78.67
75699;BME280;64313;51.018;13.742;2023-04-15T10:57:15;98750.75;;;8.65;78.63
75699;BME280;64313;51.018;13.742;2023-04-15T11:00:01;98760.16;;;8.68;78.77
75699;BME280;64313;51.018;13.742;2023-04-15T11:02:45;98757.31;;;8.70;79.10
75699;BME280;64313;51.018;13.742;2023-04-15T11:05:12;98763.81;;;8.74;78.73
75699;BME280;64313;51.018;13.742;2023-04-15T11:07:48;98761.56;;;8.77;78.39
75699;BME280;64313;51.018;13.742;2023-04-15T11:12:43;98769.13;;;8.80;78.14
75699;BME280;64313;51.018;13.742;2023-04-15T11:18:23;98777.50;;;8.84;78.02
75699;BME280;64313;51.018;13.742;2023-04-15T11:20:50;98778.34;;;8.84;77.97
75699;BME280;64313;51.018;13.742;2023-04-15T11:23:26;98773.03;;;8.84;78.24
75699;BME280;64313;51.018;13.742;2023-04-15T11:25:54;98784.28;;;8.86;78.20
75699;BME280;64313;51.018;13.742;2023-04-15T11:28:24;98779.56;;;8.88;77.78
75699;BME280;64313;51.018;13.742;2023-04-15T11:30:50;98791.88;;;8.90;77.44
75699;BME280;64313;51.018;13.742;2023-04-15T11:33:15;98788.16;;;8.91;76.94
75699;BME280;64313;51.018;13.742;2023-04-15T11:35:41;98799.63;;;8.91;77.38
75699;BME280;64313;51.018;13.742;2023-04-15T11:38:11;98795.13;;;8.92;77.14
75699;BME280;64313;51.018;13.742;2023-04-15T11:40:38;98797.78;;;8.92;77.06
75699;BME280;64313;51.018;13.742;2023-04-15T11:43:05;98792.25;;;8.93;76.15
75699;BME280;64313;51.018;13.742;2023-04-15T11:45:30;98803.53;;;8.95;76.58
75699;BME280;64313;51.018;13.742;2023-04-15T11:48:05;98796.53;;;8.94;76.46
75699;BME280;64313;51.018;13.742;2023-04-15T11:50:32;98801.66;;;8.96;77.01
75699;BME280;64313;51.018;13.742;2023-04-15T11:53:00;98797.97;;;8.97;76.87
75699;BME280;64313;51.018;13.742;2023-04-15T11:55:28;98805.75;;;8.98;76.96
75699;BME280;64313;51.018;13.742;2023-04-15T11:58:08;98813.56;;;9.00;76.02
75699;BME280;64313;51.018;13.742;2023-04-15T12:00:36;98810.66;;;9.01;76.41
75699;BME280;64313;51.018;13.742;2023-04-15T12:03:17;98813.13;;;9.03;76.04
75699;BME280;64313;51.018;13.742;2023-04-15T12:06:14;98811.28;;;9.03;75.76
75699;BME280;64313;51.018;13.742;2023-04-15T12:09:14;98820.31;;;9.02;75.88
75699;BME280;64313;51.018;13.742;2023-04-15T12:11:42;98821.94;;;9.03;76.09
75699;BME280;64313;51.018;13.742;2023-04-15T12:14:19;98831.34;;;9.06;75.84
75699;BME280;64313;51.018;13.742;2023-04-15T12:16:48;98839.34;;;9.06;75.37
75699;BME280;64313;51.018;13.742;2023-04-15T12:19:16;98837.50;;;9.06;75.46
75699;BME280;64313;51.018;13.742;2023-04-15T12:21:46;98845.31;;;9.08;76.12
75699;BME280;64313;51.018;13.742;2023-04-15T12:24:12;98841.41;;;9.10;75.25
75699;BME280;64313;51.018;13.742;2023-04-15T12:26:46;98836.06;;;9.10;75.56
75699;BME280;64313;51.018;13.742;2023-04-15T12:29:13;98842.81;;;9.13;75.54
75699;BME280;64313;51.018;13.742;2023-04-15T12:31:46;98846.09;;;9.15;75.04
75699;BME280;64313;51.018;13.742;2023-04-15T12:34:13;98847.72;;;9.16;75.19
75699;BME280;64313;51.018;13.742;2023-04-15T12:36:38;98852.84;;;9.18;75.89
75699;BME280;64313;51.018;13.742;2023-04-15T12:39:04;98856.34;;;9.18;75.29
75699;BME280;64313;51.018;13.742;2023-04-15T12:41:30;98856.94;;;9.20;75.42
75699;BME280;64313;51.018;13.742;2023-04-15T12:43:56;98858.38;;;9.23;74.29
75699;BME280;64313;51.018;13.742;2023-04-15T12:46:21;98863.91;;;9.21;74.43
75699;BME280;64313;51.018;13.742;2023-04-15T12:48:49;98863.69;;;9.23;74.19
75699;BME280;64313;51.018;13.742;2023-04-15T12:51:15;98863.69;;;9.23;74.14
75699;BME280;64313;51.018;13.742;2023-04-15T12:53:40;98868.22;;;9.22;73.92
75699;BME280;64313;51.018;13.742;2023-04-15T12:56:05;98871.69;;;9.23;74.01
75699;BME280;64313;51.018;13.742;2023-04-15T12:58:31;98885.03;;;9.23;74.24
75699;BME280;64313;51.018;13.742;2023-04-15T13:00:56;98887.47;;;9.24;73.64
75699;BME280;64313;51.018;13.742;2023-04-15T13:03:22;98887.47;;;9.24;73.45
75699;BME280;64313;51.018;13.742;2023-04-15T13:05:47;98884.81;;;9.24;73.70
75699;BME280;64313;51.018;13.742;2023-04-15T13:08:12;98887.47;;;9.24;73.96